sensor_id;sensor_type;location;lat;lon;timestamp;temperature;humidity
9323;DHT22;4700;48.822;9.270;2022-07-05T00:01:22;17.40;1.00
9323;DHT22;4700;48.822;9.270;2022-07-05T00:04:08;17.30;1.00
9323;DHT22;4700;48.822;9.270;2022-07-05T00:06:53;17.20;1.00
9323;DHT22;4700;48.822;9.270;2022-07-05T00:09:57;17.20;1.00
9323;DHT22;4700;48.822;9.270;2022-07-05T00:12:44;17.20;1.00
9323;DHT22;4700;48.822;9.270;2022-07-05T00:15:30;17.10;1.00
9323;DHT22;4700;48.822;9.270;2022-07-05T00:18:16;17.10;1.00
9323;DHT22;4700;48.822;9.270;2022-07-05T00:21:02;17.10;1.00
9323;DHT22;4700;48.822;9.270;2022-07-05T00:23:44;17.10;1.00
9323;DHT22;4700;48.822;9.270;2022-07-05T00:26:30;17.10;1.00
9323;DHT22;4700;48.822;9.270;2022-07-05T00:29:19;17.00;1.00
9323;DHT22;4700;48.822;9.270;2022-07-05T00:32:05;17.00;1.00
9323;DHT22;4700;48.822;9.270;2022-07-05T00:34:51;17.00;1.00
9323;DHT22;4700;48.822;9.270;2022-07-05T00:37:37;17.00;1.00
9323;DHT22;4700;48.822;9.270;2022-07-05T00:40:23;16.90;1.00
9323;DHT22;4700;48.822;9.270;2022-07-05T00:43:09;16.70;1.00
9323;DHT22;4700;48.822;9.270;2022-07-05T00:45:56;16.70;1.00
9323;DHT22;4700;48.822;9.270;2022-07-05T00:48:41;16.60;1.00
9323;DHT22;4700;48.822;9.270;2022-07-05T00:51:31;16.60;1.00
9323;DHT22;4700;48.822;9.270;2022-07-05T00:54:17;16.60;1.00
9323;DHT22;4700;48.822;9.270;2022-07-05T00:57:03;16.60;1.00
9323;DHT22;4700;48.822;9.270;2022-07-05T00:59:50;16.50;1.00
9323;DHT22;4700;48.822;9.270;2022-07-05T01:02:37;16.50;1.00
9323;DHT22;4700;48.822;9.270;2022-07-05T01:05:25;16.40;1.00
9323;DHT22;4700;48.822;9.270;2022-07-05T01:08:13;16.40;1.00
9323;DHT22;4700;48.822;9.270;2022-07-05T01:10:59;16.40;1.00
9323;DHT22;4700;48.822;9.270;2022-07-05T01:13:45;16.40;1.00
9323;DHT22;4700;48.822;9.270;2022-07-05T01:16:32;16.40;1.00
9323;DHT22;4700;48.822;9.270;2022-07-05T01:19:20;16.30;1.00
9323;DHT22;4700;48.822;9.270;2022-07-05T01:22:12;16.30;1.00
9323;DHT22;4700;48.822;9.270;2022-07-05T01:25:03;16.30;1.00
9323;DHT22;4700;48.822;9.270;2022-07-05T01:27:48;16.30;1.00
9323;DHT22;4700;48.822;9.270;2022-07-05T01:30:35;16.40;1.00
9323;DHT22;4700;48.822;9.270;2022-07-05T01:33:27;16.40;1.00
9323;DHT22;4700;48.822;9.270;2022-07-05T01:36:13;16.20;1.00
9323;DHT22;4700;48.822;9.270;2022-07-05T01:38:59;16.10;1.00
9323;DHT22;4700;48.822;9.270;2022-07-05T01:41:47;16.00;1.00
9323;DHT22;4700;48.822;9.270;2022-07-05T01:44:33;16.00;1.00
9323;DHT22;4700;48.822;9.270;2022-07-05T01:47:18;15.90;1.00
9323;DHT22;4700;48.822;9.270;2022-07-05T01:50:06;15.90;1.00
9323;DHT22;4700;48.822;9.270;2022-07-05T01:52:52;15.80;1.00
9323;DHT22;4700;48.822;9.270;2022-07-05T01:55:39;15.80;1.00
9323;DHT22;4700;48.822;9.270;2022-07-05T01:58:26;15.80;1.00
9323;DHT22;4700;48.822;9.270;2022-07-05T02:01:13;15.80;1.00
9323;DHT22;4700;48.822;9.270;2022-07-05T02:03:59;15.70;1.00
9323;DHT22;4700;48.822;9.270;2022-07-05T02:06:44;15.70;1.00
9323;DHT22;4700;48.822;9.270;2022-07-05T02:09:30;15.60;1.00
9323;DHT22;4700;48.822;9.270;2022-07-05T02:12:16;15.60;1.00
9323;DHT22;4700;48.822;9.270;2022-07-05T02:15:04;15.50;1.00
9323;DHT22;4700;48.822;9.270;2022-07-05T02:17:51;15.50;1.00
9323;DHT22;4700;48.822;9.270;2022-07-05T02:20:39;15.50;1.00
9323;DHT22;4700;48.822;9.270;2022-07-05T02:23:24;15.40;1.00
9323;DHT22;4700;48.822;9.270;2022-07-05T02:26:10;15.40;1.00
9323;DHT22;4700;48.822;9.270;2022-07-05T02:28:57;15.40;1.00
9323;DHT22;4700;48.822;9.270;2022-07-05T02:31:44;15.30;1.00
9323;DHT22;4700;48.822;9.270;2022-07-05T02:34:30;15.30;1.00
9323;DHT22;4700;48.822;9.270;2022-07-05T02:37:16;15.30;1.00
9323;DHT22;4700;48.822;9.270;2022-07-05T02:40:02;15.30;1.00
9323;DHT22;4700;48.822;9.270;2022-07-05T02:42:48;15.30;1.00
9323;DHT22;4700;48.822;9.270;2022-07-05T02:45:34;15.30;1.00
9323;DHT22;4700;48.822;9.270;2022-07-05T02:48:22;15.20;1.00
9323;DHT22;4700;48.822;9.270;2022-07-05T02:51:08;15.20;1.00
9323;DHT22;4700;48.822;9.270;2022-07-05T02:53:55;15.30;1.00
9323;DHT22;4700;48.822;9.270;2022-07-05T02:56:44;15.30;1.00
9323;DHT22;4700;48.822;9.270;2022-07-05T02:59:29;15.40;1.00
9323;DHT22;4700;48.822;9.270;2022-07-05T03:02:15;15.30;1.00
9323;DHT22;4700;48.822;9.270;2022-07-05T03:05:03;15.30;1.00
9323;DHT22;4700;48.822;9.270;2022-07-05T03:07:49;15.20;1.00
9323;DHT22;4700;48.822;9.270;2022-07-05T03:10:35;15.20;1.00
9323;DHT22;4700;48.822;9.270;2022-07-05T03:13:21;15.20;1.00
9323;DHT22;4700;48.822;9.270;2022-07-05T03:16:06;15.20;1.00
9323;DHT22;4700;48.822;9.270;2022-07-05T03:18:52;15.10;1.00
9323;DHT22;4700;48.822;9.270;2022-07-05T03:21:39;15.00;1.00
9323;DHT22;4700;48.822;9.270;2022-07-05T03:24:17;14.90;1.00
9323;DHT22;4700;48.822;9.270;2022-07-05T03:27:03;14.90;1.00
9323;DHT22;4700;48.822;9.270;2022-07-05T03:29:49;14.80;1.00
9323;DHT22;4700;48.822;9.270;2022-07-05T03:32:34;14.80;1.00
9323;DHT22;4700;48.822;9.270;2022-07-05T03:35:20;14.70;1.00
9323;DHT22;4700;48.822;9.270;2022-07-05T03:38:07;14.70;1.00
9323;DHT22;4700;48.822;9.270;2022-07-05T03:40:53;14.70;1.00
9323;DHT22;4700;48.822;9.270;2022-07-05T03:43:39;14.80;1.00
9323;DHT22;4700;48.822;9.270;2022-07-05T03:46:25;14.80;1.00
9323;DHT22;4700;48.822;9.270;2022-07-05T03:49:10;14.90;1.00
9323;DHT22;4700;48.822;9.270;2022-07-05T03:51:56;14.90;1.00
9323;DHT22;4700;48.822;9.270;2022-07-05T03:54:43;14.90;1.00
9323;DHT22;4700;48.822;9.270;2022-07-05T03:57:29;14.90;1.00
9323;DHT22;4700;48.822;9.270;2022-07-05T04:00:15;15.00;1.00
9323;DHT22;4700;48.822;9.270;2022-07-05T04:03:01;15.00;1.00
9323;DHT22;4700;48.822;9.270;2022-07-05T04:05:46;15.00;1.00
9323;DHT22;4700;48.822;9.270;2022-07-05T04:08:32;15.10;1.00
9323;DHT22;4700;48.822;9.270;2022-07-05T04:11:20;15.10;1.00
9323;DHT22;4700;48.822;9.270;2022-07-05T04:14:05;15.20;1.00
9323;DHT22;4700;48.822;9.270;2022-07-05T04:16:54;15.30;1.00
9323;DHT22;4700;48.822;9.270;2022-07-05T04:19:39;15.40;1.00
9323;DHT22;4700;48.822;9.270;2022-07-05T04:22:25;15.50;1.00
9323;DHT22;4700;48.822;9.270;2022-07-05T04:25:11;15.50;1.00
9323;DHT22;4700;48.822;9.270;2022-07-05T04:28:04;15.60;1.00
9323;DHT22;4700;48.822;9.270;2022-07-05T04:30:49;15.60;1.00
9323;DHT22;4700;48.822;9.270;2022-07-05T04:33:38;15.70;1.00
9323;DHT22;4700;48.822;9.270;2022-07-05T04:36:24;15.80;1.00
9323;DHT22;4700;48.822;9.270;2022-07-05T04:39:10;15.90;1.00
9323;DHT22;4700;48.822;9.270;2022-07-05T04:41:55;16.10;1.00
9323;DHT22;4700;48.822;9.270;2022-07-05T04:44:43;16.20;1.00
9323;DHT22;4700;48.822;9.270;2022-07-05T04:47:29;16.30;1.00
9323;DHT22;4700;48.822;9.270;2022-07-05T04:50:14;16.40;1.00
9323;DHT22;4700;48.822;9.270;2022-07-05T04:53:00;16.50;1.00
9323;DHT22;4700;48.822;9.270;2022-07-05T04:55:45;16.60;1.00
9323;DHT22;4700;48.822;9.270;2022-07-05T04:58:31;16.60;1.00
9323;DHT22;4700;48.822;9.270;2022-07-05T05:01:19;16.70;1.00
9323;DHT22;4700;48.822;9.270;2022-07-05T05:04:04;16.70;1.00
9323;DHT22;4700;48.822;9.270;2022-07-05T05:06:50;16.80;1.00
9323;DHT22;4700;48.822;9.270;2022-07-05T05:09:36;16.90;1.00
9323;DHT22;4700;48.822;9.270;2022-07-05T05:12:21;17.00;1.00
9323;DHT22;4700;48.822;9.270;2022-07-05T05:15:08;17.10;1.00
9323;DHT22;4700;48.822;9.270;2022-07-05T05:17:55;17.20;1.00
9323;DHT22;4700;48.822;9.270;2022-07-05T05:20:41;17.40;1.00
9323;DHT22;4700;48.822;9.270;2022-07-05T05:23:27;17.40;1.00
9323;DHT22;4700;48.822;9.270;2022-07-05T05:26:12;17.50;1.00
9323;DHT22;4700;48.822;9.270;2022-07-05T05:28:58;17.60;1.00
9323;DHT22;4700;48.822;9.270;2022-07-05T05:31:44;17.70;1.00
9323;DHT22;4700;48.822;9.270;2022-07-05T05:34:31;17.90;1.00
9323;DHT22;4700;48.822;9.270;2022-07-05T05:37:17;17.90;1.00
9323;DHT22;4700;48.822;9.270;2022-07-05T05:40:03;17.90;1.00
9323;DHT22;4700;48.822;9.270;2022-07-05T05:42:50;18.00;1.00
9323;DHT22;4700;48.822;9.270;2022-07-05T05:45:37;18.10;1.00
9323;DHT22;4700;48.822;9.270;2022-07-05T05:48:22;18.20;1.00
9323;DHT22;4700;48.822;9.270;2022-07-05T05:51:13;18.30;1.00
9323;DHT22;4700;48.822;9.270;2022-07-05T05:53:59;18.40;1.00
9323;DHT22;4700;48.822;9.270;2022-07-05T05:56:45;18.50;1.00
9323;DHT22;4700;48.822;9.270;2022-07-05T05:59:31;18.70;1.00
9323;DHT22;4700;48.822;9.270;2022-07-05T06:02:16;18.80;1.00
9323;DHT22;4700;48.822;9.270;2022-07-05T06:05:03;19.10;1.00
9323;DHT22;4700;48.822;9.270;2022-07-05T06:07:51;20.20;1.00
9323;DHT22;4700;48.822;9.270;2022-07-05T06:10:37;22.70;1.00
9323;DHT22;4700;48.822;9.270;2022-07-05T06:13:23;26.00;1.00
9323;DHT22;4700;48.822;9.270;2022-07-05T06:16:09;29.30;1.00
9323;DHT22;4700;48.822;9.270;2022-07-05T06:18:58;31.90;1.00
9323;DHT22;4700;48.822;9.270;2022-07-05T06:21:46;33.40;1.00
9323;DHT22;4700;48.822;9.270;2022-07-05T06:24:33;34.60;1.00
9323;DHT22;4700;48.822;9.270;2022-07-05T06:27:19;36.10;1.00
9323;DHT22;4700;48.822;9.270;2022-07-05T06:30:06;36.60;1.00
9323;DHT22;4700;48.822;9.270;2022-07-05T06:32:53;36.80;1.00
9323;DHT22;4700;48.822;9.270;2022-07-05T06:35:40;37.00;1.00
9323;DHT22;4700;48.822;9.270;2022-07-05T06:38:25;37.60;1.00
9323;DHT22;4700;48.822;9.270;2022-07-05T06:41:13;36.70;1.00
9323;DHT22;4700;48.822;9.270;2022-07-05T06:43:59;38.10;1.00
9323;DHT22;4700;48.822;9.270;2022-07-05T06:46:47;39.60;1.00
9323;DHT22;4700;48.822;9.270;2022-07-05T06:49:32;40.40;1.00
9323;DHT22;4700;48.822;9.270;2022-07-05T06:52:18;40.90;1.00
9323;DHT22;4700;48.822;9.270;2022-07-05T06:55:04;41.90;1.00
9323;DHT22;4700;48.822;9.270;2022-07-05T06:57:58;42.00;1.00
9323;DHT22;4700;48.822;9.270;2022-07-05T07:00:44;40.80;1.00
9323;DHT22;4700;48.822;9.270;2022-07-05T07:03:30;41.70;1.00
9323;DHT22;4700;48.822;9.270;2022-07-05T07:06:17;42.70;1.00
9323;DHT22;4700;48.822;9.270;2022-07-05T07:09:05;42.90;1.00
9323;DHT22;4700;48.822;9.270;2022-07-05T07:12:04;41.70;1.00
9323;DHT22;4700;48.822;9.270;2022-07-05T07:14:51;41.20;1.00
9323;DHT22;4700;48.822;9.270;2022-07-05T07:17:37;40.50;1.00
9323;DHT22;4700;48.822;9.270;2022-07-05T07:20:24;40.60;1.00
9323;DHT22;4700;48.822;9.270;2022-07-05T07:23:09;40.10;1.00
9323;DHT22;4700;48.822;9.270;2022-07-05T07:25:55;39.70;1.00
9323;DHT22;4700;48.822;9.270;2022-07-05T07:28:41;41.50;1.00
9323;DHT22;4700;48.822;9.270;2022-07-05T07:31:28;41.90;1.00
9323;DHT22;4700;48.822;9.270;2022-07-05T07:34:17;42.10;1.00
9323;DHT22;4700;48.822;9.270;2022-07-05T07:37:03;43.50;1.00
9323;DHT22;4700;48.822;9.270;2022-07-05T07:39:49;44.20;1.00
9323;DHT22;4700;48.822;9.270;2022-07-05T07:42:37;43.00;1.00
9323;DHT22;4700;48.822;9.270;2022-07-05T07:45:23;41.10;1.00
9323;DHT22;4700;48.822;9.270;2022-07-05T07:48:11;42.40;1.00
9323;DHT22;4700;48.822;9.270;2022-07-05T07:50:57;43.20;1.00
9323;DHT22;4700;48.822;9.270;2022-07-05T07:53:43;42.50;1.00
9323;DHT22;4700;48.822;9.270;2022-07-05T07:56:30;42.60;1.00
9323;DHT22;4700;48.822;9.270;2022-07-05T07:59:16;43.10;99.90
9323;DHT22;4700;48.822;9.270;2022-07-05T08:02:02;43.70;99.90
9323;DHT22;4700;48.822;9.270;2022-07-05T08:04:49;43.50;99.90
9323;DHT22;4700;48.822;9.270;2022-07-05T08:07:35;42.90;99.90
9323;DHT22;4700;48.822;9.270;2022-07-05T08:10:21;43.20;99.90
9323;DHT22;4700;48.822;9.270;2022-07-05T08:13:08;43.40;99.90
9323;DHT22;4700;48.822;9.270;2022-07-05T08:15:58;43.00;99.90
9323;DHT22;4700;48.822;9.270;2022-07-05T08:18:56;41.30;99.90
9323;DHT22;4700;48.822;9.270;2022-07-05T08:22:02;42.20;99.90
9323;DHT22;4700;48.822;9.270;2022-07-05T08:24:49;43.80;99.90
9323;DHT22;4700;48.822;9.270;2022-07-05T08:27:38;45.00;99.90
9323;DHT22;4700;48.822;9.270;2022-07-05T08:30:26;45.20;99.90
9323;DHT22;4700;48.822;9.270;2022-07-05T08:33:12;45.20;99.90
9323;DHT22;4700;48.822;9.270;2022-07-05T08:35:58;45.10;99.90
9323;DHT22;4700;48.822;9.270;2022-07-05T08:38:46;44.80;99.90
9323;DHT22;4700;48.822;9.270;2022-07-05T08:41:35;45.10;99.90
9323;DHT22;4700;48.822;9.270;2022-07-05T08:44:23;45.10;99.90
9323;DHT22;4700;48.822;9.270;2022-07-05T08:47:12;44.80;99.90
9323;DHT22;4700;48.822;9.270;2022-07-05T08:49:59;45.40;99.90
9323;DHT22;4700;48.822;9.270;2022-07-05T08:52:46;45.20;99.90
9323;DHT22;4700;48.822;9.270;2022-07-05T08:55:37;44.70;99.90
9323;DHT22;4700;48.822;9.270;2022-07-05T08:58:24;44.20;99.90
9323;DHT22;4700;48.822;9.270;2022-07-05T09:01:12;44.30;99.90
9323;DHT22;4700;48.822;9.270;2022-07-05T09:04:00;44.40;99.90
9323;DHT22;4700;48.822;9.270;2022-07-05T09:06:47;44.30;99.90
9323;DHT22;4700;48.822;9.270;2022-07-05T09:09:38;42.70;99.90
9323;DHT22;4700;48.822;9.270;2022-07-05T09:12:30;43.90;99.90
9323;DHT22;4700;48.822;9.270;2022-07-05T09:15:16;44.70;99.90
9323;DHT22;4700;48.822;9.270;2022-07-05T09:18:02;41.20;99.90
9323;DHT22;4700;48.822;9.270;2022-07-05T09:20:48;43.00;99.90
9323;DHT22;4700;48.822;9.270;2022-07-05T09:23:34;44.60;99.90
9323;DHT22;4700;48.822;9.270;2022-07-05T09:26:22;44.90;99.90
9323;DHT22;4700;48.822;9.270;2022-07-05T09:29:14;44.80;99.90
9323;DHT22;4700;48.822;9.270;2022-07-05T09:32:00;44.90;99.90
9323;DHT22;4700;48.822;9.270;2022-07-05T09:34:46;44.20;99.90
9323;DHT22;4700;48.822;9.270;2022-07-05T09:37:42;43.60;99.90
9323;DHT22;4700;48.822;9.270;2022-07-05T09:40:29;43.60;99.90
9323;DHT22;4700;48.822;9.270;2022-07-05T09:43:18;43.50;99.90
9323;DHT22;4700;48.822;9.270;2022-07-05T09:46:06;43.20;99.90
9323;DHT22;4700;48.822;9.270;2022-07-05T09:48:53;43.70;99.90
9323;DHT22;4700;48.822;9.270;2022-07-05T09:51:49;43.60;99.90
9323;DHT22;4700;48.822;9.270;2022-07-05T09:54:37;44.00;99.90
9323;DHT22;4700;48.822;9.270;2022-07-05T09:57:26;42.50;99.90
9323;DHT22;4700;48.822;9.270;2022-07-05T10:00:14;42.40;99.90
9323;DHT22;4700;48.822;9.270;2022-07-05T10:03:02;42.50;99.90
9323;DHT22;4700;48.822;9.270;2022-07-05T10:05:49;43.10;99.90
9323;DHT22;4700;48.822;9.270;2022-07-05T10:08:35;42.50;99.90
9323;DHT22;4700;48.822;9.270;2022-07-05T10:11:22;44.00;99.90
9323;DHT22;4700;48.822;9.270;2022-07-05T10:14:14;45.30;99.90
9323;DHT22;4700;48.822;9.270;2022-07-05T10:17:01;43.80;99.90
9323;DHT22;4700;48.822;9.270;2022-07-05T10:19:48;44.00;99.90
9323;DHT22;4700;48.822;9.270;2022-07-05T10:22:35;42.80;99.90
9323;DHT22;4700;48.822;9.270;2022-07-05T10:25:22;42.50;99.90
9323;DHT22;4700;48.822;9.270;2022-07-05T10:28:09;42.30;99.90
9323;DHT22;4700;48.822;9.270;2022-07-05T10:30:54;41.80;99.90
9323;DHT22;4700;48.822;9.270;2022-07-05T10:33:41;40.80;99.90
9323;DHT22;4700;48.822;9.270;2022-07-05T10:39:14;40.50;99.90
9323;DHT22;4700;48.822;9.270;2022-07-05T10:42:01;36.90;99.90
9323;DHT22;4700;48.822;9.270;2022-07-05T10:44:47;36.10;99.90
9323;DHT22;4700;48.822;9.270;2022-07-05T10:47:33;35.80;99.90
9323;DHT22;4700;48.822;9.270;2022-07-05T10:50:18;35.50;99.90
9323;DHT22;4700;48.822;9.270;2022-07-05T10:53:11;34.90;99.90
9323;DHT22;4700;48.822;9.270;2022-07-05T10:55:58;34.10;99.90
9323;DHT22;4700;48.822;9.270;2022-07-05T10:58:47;33.40;99.90
9323;DHT22;4700;48.822;9.270;2022-07-05T11:01:36;32.90;99.90
9323;DHT22;4700;48.822;9.270;2022-07-05T11:04:29;32.40;99.90
9323;DHT22;4700;48.822;9.270;2022-07-05T11:11:12;31.70;99.90
9323;DHT22;4700;48.822;9.270;2022-07-05T11:13:59;31.40;99.90
9323;DHT22;4700;48.822;9.270;2022-07-05T11:17:13;31.20;99.90
9323;DHT22;4700;48.822;9.270;2022-07-05T11:20:15;30.50;99.90
9323;DHT22;4700;48.822;9.270;2022-07-05T11:23:12;29.70;99.90
9323;DHT22;4700;48.822;9.270;2022-07-05T11:25:46;29.30;99.90
9323;DHT22;4700;48.822;9.270;2022-07-05T11:28:43;29.10;99.90
9323;DHT22;4700;48.822;9.270;2022-07-05T11:31:40;29.00;99.90
9323;DHT22;4700;48.822;9.270;2022-07-05T11:34:32;29.10;99.90
9323;DHT22;4700;48.822;9.270;2022-07-05T11:37:19;28.90;99.90
9323;DHT22;4700;48.822;9.270;2022-07-05T11:40:29;29.30;99.90
9323;DHT22;4700;48.822;9.270;2022-07-05T11:43:25;29.30;99.90
9323;DHT22;4700;48.822;9.270;2022-07-05T11:46:15;29.40;99.90
9323;DHT22;4700;48.822;9.270;2022-07-05T11:49:04;29.30;99.90
9323;DHT22;4700;48.822;9.270;2022-07-05T11:51:57;29.40;99.90
9323;DHT22;4700;48.822;9.270;2022-07-05T11:54:48;29.50;99.90
9323;DHT22;4700;48.822;9.270;2022-07-05T11:57:34;29.50;99.90
9323;DHT22;4700;48.822;9.270;2022-07-05T12:00:28;29.70;99.90
9323;DHT22;4700;48.822;9.270;2022-07-05T12:03:15;29.60;99.90
9323;DHT22;4700;48.822;9.270;2022-07-05T12:06:11;29.50;99.90
9323;DHT22;4700;48.822;9.270;2022-07-05T12:09:02;29.30;99.90
9323;DHT22;4700;48.822;9.270;2022-07-05T12:11:50;29.30;99.90
9323;DHT22;4700;48.822;9.270;2022-07-05T12:14:53;29.40;1.00
9323;DHT22;4700;48.822;9.270;2022-07-05T12:17:41;29.00;99.90
9323;DHT22;4700;48.822;9.270;2022-07-05T12:20:30;28.50;1.00
9323;DHT22;4700;48.822;9.270;2022-07-05T12:23:26;28.50;1.00
9323;DHT22;4700;48.822;9.270;2022-07-05T12:25:59;28.40;1.00
9323;DHT22;4700;48.822;9.270;2022-07-05T12:28:45;28.30;1.00
9323;DHT22;4700;48.822;9.270;2022-07-05T12:31:31;28.20;1.00
9323;DHT22;4700;48.822;9.270;2022-07-05T12:34:19;28.20;1.00
9323;DHT22;4700;48.822;9.270;2022-07-05T12:37:07;28.10;1.00
9323;DHT22;4700;48.822;9.270;2022-07-05T12:40:04;28.20;1.00
9323;DHT22;4700;48.822;9.270;2022-07-05T12:43:03;28.30;1.00
9323;DHT22;4700;48.822;9.270;2022-07-05T12:45:59;28.40;1.00
9323;DHT22;4700;48.822;9.270;2022-07-05T12:48:51;28.50;1.00
9323;DHT22;4700;48.822;9.270;2022-07-05T12:51:38;28.70;1.00
9323;DHT22;4700;48.822;9.270;2022-07-05T12:54:25;28.70;1.00
9323;DHT22;4700;48.822;9.270;2022-07-05T12:57:29;28.80;1.00
9323;DHT22;4700;48.822;9.270;2022-07-05T13:00:33;28.90;1.00
9323;DHT22;4700;48.822;9.270;2022-07-05T13:03:19;28.70;1.00
9323;DHT22;4700;48.822;9.270;2022-07-05T13:06:07;28.70;1.00
9323;DHT22;4700;48.822;9.270;2022-07-05T13:08:56;28.50;1.00
9323;DHT22;4700;48.822;9.270;2022-07-05T13:11:44;28.50;1.00
9323;DHT22;4700;48.822;9.270;2022-07-05T13:14:29;28.60;1.00
9323;DHT22;4700;48.822;9.270;2022-07-05T13:17:16;28.60;1.00
9323;DHT22;4700;48.822;9.270;2022-07-05T13:20:03;28.60;1.00
9323;DHT22;4700;48.822;9.270;2022-07-05T13:22:49;28.50;1.00
9323;DHT22;4700;48.822;9.270;2022-07-05T13:25:35;28.30;1.00
9323;DHT22;4700;48.822;9.270;2022-07-05T13:28:22;28.40;1.00
9323;DHT22;4700;48.822;9.270;2022-07-05T13:31:08;28.30;1.00
9323;DHT22;4700;48.822;9.270;2022-07-05T13:33:56;28.40;1.00
9323;DHT22;4700;48.822;9.270;2022-07-05T13:36:42;28.40;1.00
9323;DHT22;4700;48.822;9.270;2022-07-05T13:39:29;28.20;1.00
9323;DHT22;4700;48.822;9.270;2022-07-05T13:42:15;28.20;1.00
9323;DHT22;4700;48.822;9.270;2022-07-05T13:45:05;28.40;1.00
9323;DHT22;4700;48.822;9.270;2022-07-05T13:47:51;28.60;1.00
9323;DHT22;4700;48.822;9.270;2022-07-05T13:50:39;28.70;1.00
9323;DHT22;4700;48.822;9.270;2022-07-05T13:53:25;28.90;1.00
9323;DHT22;4700;48.822;9.270;2022-07-05T13:56:11;29.00;1.00
9323;DHT22;4700;48.822;9.270;2022-07-05T13:58:58;28.90;1.00
9323;DHT22;4700;48.822;9.270;2022-07-05T14:01:45;28.80;1.00
9323;DHT22;4700;48.822;9.270;2022-07-05T14:04:31;28.60;1.00
9323;DHT22;4700;48.822;9.270;2022-07-05T14:07:18;28.20;1.00
9323;DHT22;4700;48.822;9.270;2022-07-05T14:10:04;28.20;1.00
9323;DHT22;4700;48.822;9.270;2022-07-05T14:12:50;28.40;1.00
9323;DHT22;4700;48.822;9.270;2022-07-05T14:15:39;28.70;1.00
9323;DHT22;4700;48.822;9.270;2022-07-05T14:18:26;28.90;1.00
9323;DHT22;4700;48.822;9.270;2022-07-05T14:21:12;28.80;1.00
9323;DHT22;4700;48.822;9.270;2022-07-05T14:23:59;28.60;1.00
9323;DHT22;4700;48.822;9.270;2022-07-05T14:26:48;28.50;1.00
9323;DHT22;4700;48.822;9.270;2022-07-05T14:29:36;28.50;1.00
9323;DHT22;4700;48.822;9.270;2022-07-05T14:32:22;28.50;1.00
9323;DHT22;4700;48.822;9.270;2022-07-05T14:35:10;28.60;1.00
9323;DHT22;4700;48.822;9.270;2022-07-05T14:37:56;28.50;1.00
9323;DHT22;4700;48.822;9.270;2022-07-05T14:40:43;28.40;1.00
9323;DHT22;4700;48.822;9.270;2022-07-05T14:43:29;28.60;1.00
9323;DHT22;4700;48.822;9.270;2022-07-05T14:46:15;28.80;1.00
9323;DHT22;4700;48.822;9.270;2022-07-05T14:49:02;28.80;1.00
9323;DHT22;4700;48.822;9.270;2022-07-05T14:51:49;28.70;1.00
9323;DHT22;4700;48.822;9.270;2022-07-05T14:54:35;28.40;1.00
9323;DHT22;4700;48.822;9.270;2022-07-05T14:57:26;28.30;1.00
9323;DHT22;4700;48.822;9.270;2022-07-05T15:00:16;28.50;1.00
9323;DHT22;4700;48.822;9.270;2022-07-05T15:03:04;28.70;1.00
9323;DHT22;4700;48.822;9.270;2022-07-05T15:05:52;29.00;1.00
9323;DHT22;4700;48.822;9.270;2022-07-05T15:08:40;29.10;1.00
9323;DHT22;4700;48.822;9.270;2022-07-05T15:11:26;29.00;1.00
9323;DHT22;4700;48.822;9.270;2022-07-05T15:14:13;28.70;1.00
9323;DHT22;4700;48.822;9.270;2022-07-05T15:16:59;28.60;1.00
9323;DHT22;4700;48.822;9.270;2022-07-05T15:19:45;28.70;1.00
9323;DHT22;4700;48.822;9.270;2022-07-05T15:22:33;28.60;1.00
9323;DHT22;4700;48.822;9.270;2022-07-05T15:25:20;28.60;1.00
9323;DHT22;4700;48.822;9.270;2022-07-05T15:28:06;28.50;1.00
9323;DHT22;4700;48.822;9.270;2022-07-05T15:30:57;28.60;1.00
9323;DHT22;4700;48.822;9.270;2022-07-05T15:33:43;28.70;1.00
9323;DHT22;4700;48.822;9.270;2022-07-05T15:36:30;28.70;1.00
9323;DHT22;4700;48.822;9.270;2022-07-05T15:39:17;28.80;1.00
9323;DHT22;4700;48.822;9.270;2022-07-05T15:42:04;28.70;1.00
9323;DHT22;4700;48.822;9.270;2022-07-05T15:44:52;28.70;1.00
9323;DHT22;4700;48.822;9.270;2022-07-05T15:47:40;28.60;1.00
9323;DHT22;4700;48.822;9.270;2022-07-05T15:50:26;28.70;1.00
9323;DHT22;4700;48.822;9.270;2022-07-05T15:53:12;28.60;1.00
9323;DHT22;4700;48.822;9.270;2022-07-05T15:56:01;28.70;1.00
9323;DHT22;4700;48.822;9.270;2022-07-05T15:58:48;28.80;1.00
9323;DHT22;4700;48.822;9.270;2022-07-05T16:01:34;28.60;1.00
9323;DHT22;4700;48.822;9.270;2022-07-05T16:04:19;28.40;1.00
9323;DHT22;4700;48.822;9.270;2022-07-05T16:07:06;28.20;1.00
9323;DHT22;4700;48.822;9.270;2022-07-05T16:09:52;28.20;1.00
9323;DHT22;4700;48.822;9.270;2022-07-05T16:12:37;28.10;1.00
9323;DHT22;4700;48.822;9.270;2022-07-05T16:15:25;28.00;1.00
9323;DHT22;4700;48.822;9.270;2022-07-05T16:18:28;28.00;1.00
9323;DHT22;4700;48.822;9.270;2022-07-05T16:21:17;28.10;1.00
9323;DHT22;4700;48.822;9.270;2022-07-05T16:24:07;28.20;1.00
9323;DHT22;4700;48.822;9.270;2022-07-05T16:26:41;28.30;1.00
9323;DHT22;4700;48.822;9.270;2022-07-05T16:29:27;27.80;1.00
9323;DHT22;4700;48.822;9.270;2022-07-05T16:32:14;28.10;1.00
9323;DHT22;4700;48.822;9.270;2022-07-05T16:35:00;28.30;1.00
9323;DHT22;4700;48.822;9.270;2022-07-05T16:37:46;28.30;1.00
9323;DHT22;4700;48.822;9.270;2022-07-05T16:40:32;28.10;1.00
9323;DHT22;4700;48.822;9.270;2022-07-05T16:43:17;28.00;1.00
9323;DHT22;4700;48.822;9.270;2022-07-05T16:46:04;28.00;1.00
9323;DHT22;4700;48.822;9.270;2022-07-05T16:48:53;28.00;1.00
9323;DHT22;4700;48.822;9.270;2022-07-05T16:51:39;28.00;1.00
9323;DHT22;4700;48.822;9.270;2022-07-05T16:54:25;28.10;1.00
9323;DHT22;4700;48.822;9.270;2022-07-05T16:57:11;28.30;1.00
9323;DHT22;4700;48.822;9.270;2022-07-05T16:59:57;28.10;1.00
9323;DHT22;4700;48.822;9.270;2022-07-05T17:02:43;27.90;1.00
9323;DHT22;4700;48.822;9.270;2022-07-05T17:05:30;27.90;1.00
9323;DHT22;4700;48.822;9.270;2022-07-05T17:08:16;28.00;1.00
9323;DHT22;4700;48.822;9.270;2022-07-05T17:11:04;28.00;1.00
9323;DHT22;4700;48.822;9.270;2022-07-05T17:13:56;28.00;1.00
9323;DHT22;4700;48.822;9.270;2022-07-05T17:16:41;27.90;1.00
9323;DHT22;4700;48.822;9.270;2022-07-05T17:19:27;27.60;1.00
9323;DHT22;4700;48.822;9.270;2022-07-05T17:22:15;27.40;1.00
9323;DHT22;4700;48.822;9.270;2022-07-05T17:25:00;27.20;1.00
9323;DHT22;4700;48.822;9.270;2022-07-05T17:27:46;27.10;1.00
9323;DHT22;4700;48.822;9.270;2022-07-05T17:30:32;27.10;1.00
9323;DHT22;4700;48.822;9.270;2022-07-05T17:33:18;27.10;1.00
9323;DHT22;4700;48.822;9.270;2022-07-05T17:36:04;27.00;1.00
9323;DHT22;4700;48.822;9.270;2022-07-05T17:38:51;27.10;1.00
9323;DHT22;4700;48.822;9.270;2022-07-05T17:41:37;27.00;1.00
9323;DHT22;4700;48.822;9.270;2022-07-05T17:44:22;27.10;1.00
9323;DHT22;4700;48.822;9.270;2022-07-05T17:47:08;27.10;1.00
9323;DHT22;4700;48.822;9.270;2022-07-05T17:49:54;27.10;1.00
9323;DHT22;4700;48.822;9.270;2022-07-05T17:52:40;27.00;1.00
9323;DHT22;4700;48.822;9.270;2022-07-05T17:55:27;26.90;1.00
9323;DHT22;4700;48.822;9.270;2022-07-05T17:58:13;26.70;1.00
9323;DHT22;4700;48.822;9.270;2022-07-05T18:01:01;26.40;1.00
9323;DHT22;4700;48.822;9.270;2022-07-05T18:03:49;26.30;1.00
9323;DHT22;4700;48.822;9.270;2022-07-05T18:06:34;26.20;1.00
9323;DHT22;4700;48.822;9.270;2022-07-05T18:09:20;26.20;1.00
9323;DHT22;4700;48.822;9.270;2022-07-05T18:12:09;26.10;1.00
9323;DHT22;4700;48.822;9.270;2022-07-05T18:14:54;26.00;1.00
9323;DHT22;4700;48.822;9.270;2022-07-05T18:17:40;25.80;1.00
9323;DHT22;4700;48.822;9.270;2022-07-05T18:20:26;25.70;1.00
9323;DHT22;4700;48.822;9.270;2022-07-05T18:23:12;25.50;1.00
9323;DHT22;4700;48.822;9.270;2022-07-05T18:25:57;25.40;1.00
9323;DHT22;4700;48.822;9.270;2022-07-05T18:28:45;25.20;1.00
9323;DHT22;4700;48.822;9.270;2022-07-05T18:31:31;25.10;1.00
9323;DHT22;4700;48.822;9.270;2022-07-05T18:34:16;25.00;1.00